Main page
METAR-TAF:

Airports :

Waddington, England

RAF Waddington

latitude: 53-10N, longitude: 000-31W, elevation: 68 m

Current weather observation

The report was made 22 minutes ago, at 23:50 UTC
Wind 5 kt from the West/Southwest
Temperature 12°C
Humidity 82%
Pressure 1014 hPa
Visibility 10 km or more
no clouds below 1500 m and no cumulonimbus

METAR: EGXW 302350Z 25005KT CAVOK 12/09 Q1014 BLU

Time: 01:12 (00:12 UTC)

Forecast

The report was made 10 hours and 52 minutes ago, at 13:20 UTC
Forecast valid from 30 at 15 UTC to 30 at 19 UTC
Wind 10 kt from the West/Northwest
Visibility 10 km or more
Scattered clouds at a height of 4000 ft

TAF: EGXW 301320Z 3015/3019 30010KT 9999 SCT040

METAR-TAF

Weather observations and forecasts of more than 4000 airports (METAR and TAF reports).

The available stations are represented by yellow and red dots on the map.

Hover mouse over dot to see the name of the station.

Then click to see weather observations and forecasts.

To change the map : click on the green buttons with a black cross to zoom in, on the green button with a dash to zoom out, or on the green arrows for adjacent maps.


METAR-TAF: